Time;durP1;ratioP1;P1;durP2;ratioP2;P2;SDS_P1;SDS_P2;PMS_P1;PMS_P2;Temp;Humidity;BMP_temperature;BMP_pressure;BME280_temperature;BME280_humidity;BME280_pressure;Samples;Min_cycle;Max_cycle;Signal;HPM_P1;HPM_P2
2022/10/26 00:00:33;;;;;;;13.30;11.53;;;;;;;8.81;97.64;100328.94;5013583;28;20997;-82
2022/10/26 00:02:59;;;;;;;14.40;11.40;;;;;;;8.77;97.67;100324.84;5001227;28;20484;-82
2022/10/26 00:05:26;;;;;;;21.70;12.83;;;;;;;8.76;97.43;100328.47;5004186;28;20565;-82
2022/10/26 00:07:53;;;;;;;15.93;11.90;;;;;;;8.84;98.29;100333.19;5001905;28;20499;-81
2022/10/26 00:10:20;;;;;;;25.90;13.60;;;;;;;8.79;98.25;100333.56;5003177;28;20527;-81
2022/10/26 00:12:49;;;;;;;17.83;12.47;;;;;;;8.76;98.13;100316.97;5002004;28;20500;-80
2022/10/26 00:15:16;;;;;;;18.40;12.60;;;;;;;8.54;98.82;100323.22;5004399;28;20448;-81
2022/10/26 00:17:44;;;;;;;21.70;13.70;;;;;;;8.71;99.26;100328.00;5001583;28;20524;-81
2022/10/26 00:20:11;;;;;;;16.27;13.20;;;;;;;8.76;99.27;100328.47;4991818;28;20475;-81
2022/10/26 00:22:38;;;;;;;13.07;11.70;;;;;;;8.77;99.36;100332.00;5002154;28;20468;-81
2022/10/26 00:25:05;;;;;;;14.73;12.13;;;;;;;8.82;100.00;100324.47;5001496;28;21019;-81
2022/10/26 00:27:33;;;;;;;15.47;12.07;;;;;;;8.77;100.00;100316.84;5000982;28;20774;-81
2022/10/26 00:29:59;;;;;;;19.60;12.53;;;;;;;8.78;99.90;100318.53;5001866;28;20494;-80
2022/10/26 00:32:26;;;;;;;17.73;12.50;;;;;;;8.76;99.25;100315.16;5000982;28;20518;-80
2022/10/26 00:34:54;;;;;;;11.70;10.43;;;;;;;8.59;98.65;100321.91;5005850;28;20494;-81
2022/10/26 00:37:21;;;;;;;22.10;13.57;;;;;;;8.64;99.27;100324.16;5001663;28;20518;-81
2022/10/26 00:39:47;;;;;;;13.23;11.70;;;;;;;8.60;98.96;100328.91;5002480;28;20468;-81
2022/10/26 00:42:17;;;;;;;12.73;10.80;;;;;;;8.48;98.83;100325.41;5001179;28;20507;-81
2022/10/26 00:44:58;;;;;;;13.03;11.03;;;;;;;8.43;98.59;100326.78;5002522;28;20964;-81
2022/10/26 00:47:30;;;;;;;13.83;10.77;;;;;;;8.38;98.48;100334.25;4981477;28;20583;-80
2022/10/26 00:50:01;;;;;;;16.97;12.60;;;;;;;8.36;98.42;100330.88;4989287;28;20650;-81
2022/10/26 00:52:29;;;;;;;16.50;12.70;;;;;;;8.37;98.22;100330.75;5005064;28;20550;-81
2022/10/26 00:54:56;;;;;;;14.73;12.37;;;;;;;8.40;98.13;100329.66;5006445;28;20555;-81
2022/10/26 00:57:23;;;;;;;14.17;11.97;;;;;;;8.40;98.03;100325.19;5005354;28;20499;-81
2022/10/26 00:59:51;;;;;;;13.40;11.60;;;;;;;8.42;98.18;100320.59;5006212;28;20960;-81
2022/10/26 01:02:18;;;;;;;16.50;11.53;;;;;;;8.44;97.82;100317.81;5016076;28;20507;-82
2022/10/26 01:04:46;;;;;;;16.83;10.90;;;;;;;8.45;97.86;100316.84;5005417;28;20463;-82
2022/10/26 01:07:14;;;;;;;14.67;12.07;;;;;;;8.52;97.96;100306.53;5004284;28;20567;-81
2022/10/26 01:09:40;;;;;;;14.37;11.40;;;;;;;8.50;97.96;100317.31;5005435;28;20492;-82
2022/10/26 01:12:07;;;;;;;11.97;10.50;;;;;;;8.47;97.57;100315.75;5021950;28;20505;-82
2022/10/26 01:14:34;;;;;;;16.13;12.20;;;;;;;8.53;97.51;100303.72;5008307;28;20501;-82
2022/10/26 01:17:07;;;;;;;15.80;11.80;;;;;;;8.57;97.00;100313.16;5006308;28;20610;-82
2022/10/26 01:19:57;;;;;;;21.13;13.57;;;;;;;8.57;97.68;100304.31;5005196;28;20924;-82
2022/10/26 01:22:29;;;;;;;18.93;13.30;;;;;;;8.63;98.48;100307.34;5012443;28;20916;-83
2022/10/26 01:25:04;;;;;;;14.80;11.93;;;;;;;8.68;99.02;100304.31;5006002;28;20480;-83
2022/10/26 01:27:32;;;;;;;17.10;11.57;;;;;;;8.64;98.33;100298.34;5004404;28;20892;-83
2022/10/26 01:30:18;;;;;;;19.13;11.80;;;;;;;8.56;98.20;100300.81;5005095;28;20590;-83
2022/10/26 01:32:51;;;;;;;13.77;10.57;;;;;;;8.50;97.85;100295.97;5010379;28;20503;-81
2022/10/26 01:35:21;;;;;;;16.77;10.87;;;;;;;8.47;97.75;100283.78;5004769;28;20479;-81
2022/10/26 01:38:07;;;;;;;12.57;11.27;;;;;;;8.45;97.64;100277.72;5005009;28;21029;-81
2022/10/26 01:40:36;;;;;;;13.33;10.80;;;;;;;8.43;97.61;100273.50;5005244;28;20487;-81
2022/10/26 01:43:05;;;;;;;13.50;11.17;;;;;;;8.43;97.43;100282.31;5005004;28;20845;-81
2022/10/26 01:45:34;;;;;;;13.20;11.70;;;;;;;8.43;97.55;100287.66;5016056;28;20675;-81
2022/10/26 01:48:03;;;;;;;15.33;12.13;;;;;;;8.36;97.67;100289.09;5004122;28;20524;-82
2022/10/26 01:50:30;;;;;;;13.67;11.90;;;;;;;8.33;98.12;100285.84;5004520;28;20567;-81
2022/10/26 01:52:56;;;;;;;15.43;11.63;;;;;;;8.38;98.03;100273.81;5006378;28;20460;-81
2022/10/26 01:55:44;;;;;;;14.20;11.17;;;;;;;8.44;98.02;100272.53;5006083;28;20491;-81
2022/10/26 01:58:29;;;;;;;15.57;11.73;;;;;;;8.49;98.03;100278.31;5004518;28;20452;-81
2022/10/26 02:01:00;;;;;;;14.90;11.60;;;;;;;8.54;98.14;100272.59;5000956;28;21267;-81
2022/10/26 02:03:31;;;;;;;16.73;10.83;;;;;;;8.58;98.30;100271.38;5006863;28;20514;-80
2022/10/26 02:06:06;;;;;;;13.63;11.23;;;;;;;8.60;98.29;100267.59;5004025;28;20518;-80
2022/10/26 02:08:54;;;;;;;13.80;10.93;;;;;;;8.65;98.41;100262.75;5004341;28;20506;-80
2022/10/26 02:11:25;;;;;;;12.23;10.40;;;;;;;8.65;98.41;100262.75;5003886;28;20507;-81
2022/10/26 02:13:55;;;;;;;20.63;13.20;;;;;;;8.71;98.12;100257.88;4997115;28;20524;-80
2022/10/26 02:16:26;;;;;;;21.03;11.10;;;;;;;8.73;98.18;100254.13;5003496;28;21016;-80
2022/10/26 02:19:00;;;;;;;17.90;12.27;;;;;;;8.69;97.90;100247.34;5021420;28;20459;-80
2022/10/26 02:21:37;;;;;;;20.10;11.50;;;;;;;8.70;98.19;100246.38;5005615;28;20928;-80
2022/10/26 02:24:05;;;;;;;15.73;12.27;;;;;;;8.75;98.61;100236.19;4990159;28;20501;-80
2022/10/26 02:26:33;;;;;;;15.90;10.70;;;;;;;8.68;98.54;100240.34;5003248;28;20483;-81
2022/10/26 02:29:03;;;;;;;16.80;11.10;;;;;;;8.63;98.49;100239.88;5009512;28;20527;-81
2022/10/26 02:31:31;;;;;;;15.47;11.00;;;;;;;8.63;98.23;100247.88;5003246;28;20547;-81
2022/10/26 02:34:00;;;;;;;18.10;12.17;;;;;;;8.64;98.24;100244.22;5016846;28;20463;-81
2022/10/26 02:36:29;;;;;;;13.60;11.30;;;;;;;8.66;98.12;100239.59;5003315;28;20503;-81
2022/10/26 02:38:57;;;;;;;15.97;12.37;;;;;;;8.64;98.18;100228.22;5008982;28;20440;-81
2022/10/26 02:41:25;;;;;;;17.80;11.50;;;;;;;8.61;98.08;100234.66;5003289;28;20543;-81
2022/10/26 02:43:54;;;;;;;18.37;12.07;;;;;;;8.56;98.38;100236.00;5004195;28;20472;-81
2022/10/26 02:46:23;;;;;;;16.90;12.10;;;;;;;8.55;98.26;100227.16;5002936;28;20515;-81
2022/10/26 02:48:51;;;;;;;17.23;10.90;;;;;;;8.60;98.40;100224.13;5002970;28;20487;-81
2022/10/26 02:51:20;;;;;;;16.27;11.43;;;;;;;8.59;98.13;100233.09;5003101;28;20526;-82
2022/10/26 02:53:49;;;;;;;19.90;12.27;;;;;;;8.58;98.10;100221.59;5014898;28;20450;-81
2022/10/26 02:56:20;;;;;;;12.80;9.90;;;;;;;8.58;98.40;100220.75;5002968;28;20518;-82
2022/10/26 02:58:50;;;;;;;16.00;10.07;;;;;;;8.55;98.04;100219.19;5005358;28;20631;-82
2022/10/26 03:01:16;;;;;;;12.77;10.20;;;;;;;8.55;98.02;100221.00;5003108;28;20965;-82
2022/10/26 03:03:43;;;;;;;13.20;10.30;;;;;;;8.52;98.00;100219.44;5002989;28;20486;-82
2022/10/26 03:06:11;;;;;;;12.50;10.80;;;;;;;8.41;97.70;100214.97;5004954;28;21009;-81
2022/10/26 03:08:38;;;;;;;14.57;12.07;;;;;;;8.39;98.02;100219.59;5003126;28;20492;-81
2022/10/26 03:11:05;;;;;;;13.27;10.23;;;;;;;8.47;98.33;100206.50;5002936;28;20646;-81
2022/10/26 03:13:31;;;;;;;14.03;10.87;;;;;;;8.50;98.33;100209.88;5004436;28;20452;-81
2022/10/26 03:15:58;;;;;;;14.43;12.10;;;;;;;8.55;98.51;100208.53;5001862;28;20907;-81
2022/10/26 03:18:25;;;;;;;14.93;11.47;;;;;;;8.55;98.30;100213.84;5002458;28;20525;-81
2022/10/26 03:20:51;;;;;;;13.33;10.20;;;;;;;8.58;98.28;100212.75;5010821;28;20484;-82
2022/10/26 03:23:19;;;;;;;15.23;10.43;;;;;;;8.62;98.40;100209.69;5003284;28;20475;-81
2022/10/26 03:25:46;;;;;;;17.43;11.80;;;;;;;8.60;98.34;100216.13;5003331;28;20476;-81
2022/10/26 03:28:13;;;;;;;16.77;11.93;;;;;;;8.48;98.03;100218.00;5002843;28;20881;-82
2022/10/26 03:30:39;;;;;;;15.60;11.80;;;;;;;8.47;98.10;100211.84;4998772;28;20475;-82
2022/10/26 03:33:06;;;;;;;15.10;11.27;;;;;;;8.54;98.41;100212.19;4983148;28;20577;-83
2022/10/26 03:35:32;;;;;;;15.97;12.37;;;;;;;8.53;98.46;100205.16;5005653;28;20488;-83
2022/10/26 03:37:59;;;;;;;14.27;9.73;;;;;;;8.46;97.97;100207.47;5002999;28;20876;-82
2022/10/26 03:40:27;;;;;;;17.97;11.13;;;;;;;8.41;97.91;100206.97;5012458;28;20448;-82
2022/10/26 03:42:53;;;;;;;15.83;11.60;;;;;;;8.40;98.08;100205.31;5003158;28;21053;-82
2022/10/26 03:45:20;;;;;;;15.70;10.40;;;;;;;8.41;98.02;100192.81;5001491;28;20537;-82
2022/10/26 03:47:48;;;;;;;13.13;10.83;;;;;;;8.44;98.28;100195.25;5002016;28;20479;-82
2022/10/26 03:50:17;;;;;;;15.33;11.57;;;;;;;8.43;98.17;100196.22;5001559;28;20556;-81
2022/10/26 03:52:44;;;;;;;17.37;11.90;;;;;;;8.51;98.40;100192.94;5010250;28;20483;-81
2022/10/26 03:55:11;;;;;;;18.53;12.00;;;;;;;8.59;98.13;100191.31;5007586;28;20472;-81
2022/10/26 03:57:42;;;;;;;17.50;11.23;;;;;;;8.65;98.21;100189.94;5009251;28;20498;-81
2022/10/26 04:00:09;;;;;;;13.27;10.40;;;;;;;8.44;98.29;100203.25;5016572;28;20444;-83
2022/10/26 04:02:36;;;;;;;16.13;12.00;;;;;;;8.49;98.35;100198.38;4996944;28;20495;-81
2022/10/26 04:05:03;;;;;;;14.73;10.03;;;;;;;8.53;98.41;100197.16;5008479;28;20449;-81
2022/10/26 04:07:29;;;;;;;13.27;10.93;;;;;;;8.56;98.32;100199.56;5004764;28;20542;-81
2022/10/26 04:09:56;;;;;;;13.47;10.53;;;;;;;8.54;98.25;100197.97;5003176;28;20510;-82
2022/10/26 04:12:23;;;;;;;15.20;11.30;;;;;;;8.52;98.61;100191.94;5003427;28;20507;-81
2022/10/26 04:14:51;;;;;;;13.37;10.43;;;;;;;8.46;98.67;100198.63;5012525;28;20452;-81
2022/10/26 04:17:17;;;;;;;13.17;9.80;;;;;;;8.44;98.54;100190.78;5004644;28;21001;-80
2022/10/26 04:19:44;;;;;;;11.80;10.30;;;;;;;8.43;99.04;100190.91;5002238;28;20491;-82
2022/10/26 04:22:10;;;;;;;13.17;10.93;;;;;;;8.46;98.47;100196.81;5002249;28;20578;-81
2022/10/26 04:24:37;;;;;;;14.30;9.90;;;;;;;8.48;98.24;100186.88;5002351;28;20444;-81
2022/10/26 04:27:04;;;;;;;17.60;10.50;;;;;;;8.51;97.95;100191.09;5000954;28;20495;-82
2022/10/26 04:29:30;;;;;;;15.67;9.80;;;;;;;8.61;98.03;100196.50;5001183;28;20535;-82
2022/10/26 04:31:58;;;;;;;18.23;10.10;;;;;;;8.54;97.54;100198.84;5000050;28;20514;-83
2022/10/26 04:34:25;;;;;;;11.60;9.00;;;;;;;8.55;97.55;100191.69;4997636;28;20761;-82
2022/10/26 04:36:51;;;;;;;11.70;9.60;;;;;;;8.53;97.39;100194.47;5001406;28;20568;-84
2022/10/26 04:39:18;;;;;;;14.70;9.70;;;;;;;8.52;97.12;100184.78;5002474;28;20464;-84
2022/10/26 04:41:45;;;;;;;12.73;10.13;;;;;;;8.54;96.88;100190.84;5001815;28;20627;-84
2022/10/26 04:44:11;;;;;;;12.03;9.60;;;;;;;8.54;96.88;100190.84;5002529;28;20467;-85
2022/10/26 04:46:38;;;;;;;14.50;9.90;;;;;;;8.51;97.03;100190.28;5000141;28;20804;-85
2022/10/26 04:49:06;;;;;;;17.90;10.73;;;;;;;8.51;97.38;100188.44;4995222;28;20488;-85
2022/10/26 04:51:32;;;;;;;14.90;11.50;;;;;;;8.59;97.09;100196.66;4998645;28;20579;-84
2022/10/26 04:53:59;;;;;;;19.90;12.30;;;;;;;8.52;97.07;100197.28;5000624;28;20499;-84
2022/10/26 04:56:26;;;;;;;12.93;10.60;;;;;;;8.55;97.34;100194.34;4999951;28;20496;-84
2022/10/26 04:58:53;;;;;;;14.83;9.60;;;;;;;8.60;97.35;100192.16;5001493;28;20546;-84
2022/10/26 05:01:20;;;;;;;13.83;10.00;;;;;;;8.67;98.10;100191.50;5000327;28;20547;-85
2022/10/26 05:03:49;;;;;;;16.97;12.27;;;;;;;8.70;98.00;100189.53;5010295;28;20466;-85
2022/10/26 05:06:17;;;;;;;14.90;9.87;;;;;;;8.72;98.14;100193.78;5005102;28;20936;-85
2022/10/26 05:08:43;;;;;;;15.33;10.80;;;;;;;8.74;98.01;100194.50;5016715;28;20562;-85
2022/10/26 05:11:11;;;;;;;14.70;10.47;;;;;;;8.74;97.77;100186.50;5017860;28;20529;-79
2022/10/26 05:13:37;;;;;;;15.57;11.57;;;;;;;8.78;97.51;100195.06;5011452;28;20449;-81
2022/10/26 05:16:04;;;;;;;18.73;10.57;;;;;;;8.79;97.67;100194.09;5009009;28;20518;-80
2022/10/26 05:18:31;;;;;;;18.10;11.97;;;;;;;8.77;97.96;100191.56;5011343;28;20494;-80
2022/10/26 05:20:57;;;;;;;11.60;10.00;;;;;;;8.84;98.07;100192.72;5003564;28;20480;-80
2022/10/26 05:23:25;;;;;;;13.90;10.67;;;;;;;8.88;97.95;100195.97;5000326;28;20444;-80
2022/10/26 05:25:52;;;;;;;14.10;11.23;;;;;;;8.93;98.31;100187.59;5005878;28;20500;-81
2022/10/26 05:28:19;;;;;;;15.40;12.23;;;;;;;8.95;98.46;100189.13;4999841;28;20455;-80
2022/10/26 05:30:46;;;;;;;15.10;10.80;;;;;;;8.97;98.38;100192.50;4999654;28;20514;-80
2022/10/26 05:33:16;;;;;;;16.53;12.10;;;;;;;8.92;98.31;100192.06;5000681;28;20514;-81
2022/10/26 05:35:43;;;;;;;14.20;11.53;;;;;;;8.92;98.17;100193.91;4999279;28;20479;-81
2022/10/26 05:38:11;;;;;;;24.40;14.03;;;;;;;8.97;98.35;100194.34;5003476;28;21015;-81
2022/10/26 05:40:39;;;;;;;17.40;13.43;;;;;;;9.07;99.00;100192.56;5004000;28;20476;-81
2022/10/26 05:43:06;;;;;;;16.90;12.27;;;;;;;9.05;98.67;100206.03;5003612;28;20467;-80
2022/10/26 05:45:32;;;;;;;19.83;11.87;;;;;;;8.95;98.84;100199.81;5002926;28;20475;-81
2022/10/26 05:47:59;;;;;;;14.80;12.03;;;;;;;8.87;98.65;100196.97;5003306;28;20498;-81
2022/10/26 05:50:25;;;;;;;13.63;11.10;;;;;;;8.93;98.53;100200.94;5002576;28;20448;-81
2022/10/26 05:52:52;;;;;;;18.47;11.93;;;;;;;8.96;98.32;100198.84;5004055;28;20534;-81
2022/10/26 05:55:19;;;;;;;21.40;12.17;;;;;;;9.00;98.26;100208.25;5003840;28;20511;-82
2022/10/26 05:57:48;;;;;;;19.07;13.93;;;;;;;9.09;98.64;100211.13;5003305;28;20480;-82
2022/10/26 06:00:19;;;;;;;19.30;12.63;;;;;;;9.23;99.05;100221.44;5003061;28;20479;-84
2022/10/26 06:03:01;;;;;;;18.77;13.40;;;;;;;9.28;98.74;100216.53;5003677;28;20491;-84
2022/10/26 06:05:29;;;;;;;23.03;16.03;;;;;;;9.36;98.75;100215.91;5003197;28;20506;-84
2022/10/26 06:07:56;;;;;;;32.90;23.10;;;;;;;9.33;98.80;100222.34;5003597;28;21004;-84
2022/10/26 06:10:24;;;;;;;27.30;19.23;;;;;;;9.41;98.94;100225.19;5002782;28;20508;-83
2022/10/26 06:12:53;;;;;;;25.73;16.90;;;;;;;9.42;99.00;100224.19;5003495;28;20444;-84
2022/10/26 06:15:21;;;;;;;20.00;14.37;;;;;;;9.43;98.75;100228.56;5002496;28;20479;-83
2022/10/26 06:17:55;;;;;;;20.87;13.67;;;;;;;9.46;98.55;100230.13;5004294;28;20491;-81
2022/10/26 06:20:32;;;;;;;20.07;13.87;;;;;;;9.47;98.61;100228.28;5005264;28;20483;-82
2022/10/26 06:23:09;;;;;;;20.27;11.60;;;;;;;9.48;98.71;100232.63;5004815;28;20536;-82
2022/10/26 06:25:43;;;;;;;21.50;12.70;;;;;;;9.48;98.57;100232.63;5002526;28;20515;-81
2022/10/26 06:28:21;;;;;;;18.60;11.53;;;;;;;9.49;98.33;100235.19;5005183;28;20459;-83
2022/10/26 06:30:48;;;;;;;17.87;12.30;;;;;;;9.56;98.58;100238.16;5005784;28;20491;-82
2022/10/26 06:33:14;;;;;;;19.00;12.80;;;;;;;9.67;98.85;100239.88;5005156;28;20494;-83
2022/10/26 06:35:46;;;;;;;18.30;12.40;;;;;;;9.68;99.06;100233.56;5005981;28;20471;-82
2022/10/26 06:38:16;;;;;;;20.07;13.20;;;;;;;9.85;98.91;100242.75;5005956;28;20968;-83
2022/10/26 06:40:45;;;;;;;19.53;12.80;;;;;;;9.75;98.85;100243.56;5004448;28;20480;-82
2022/10/26 06:43:18;;;;;;;23.73;14.83;;;;;;;9.90;98.68;100246.72;5006674;28;20469;-82
2022/10/26 06:45:46;;;;;;;21.77;14.60;;;;;;;9.90;98.67;100244.03;5004531;28;20520;-83
2022/10/26 06:48:16;;;;;;;29.00;17.10;;;;;;;10.03;98.62;100253.63;5004837;28;20913;-82
2022/10/26 06:50:45;;;;;;;30.33;17.90;;;;;;;10.02;98.53;100255.47;5004532;28;20476;-81
2022/10/26 06:53:19;;;;;;;20.60;15.53;;;;;;;10.13;98.67;100254.50;5005284;28;20490;-82
2022/10/26 06:55:48;;;;;;;19.87;13.50;;;;;;;10.21;98.37;100257.31;5003627;28;20571;-86
2022/10/26 06:58:18;;;;;;;22.30;15.23;;;;;;;10.30;98.17;100244.97;5003060;28;20483;-85
2022/10/26 07:00:45;;;;;;;20.10;14.67;;;;;;;10.20;97.90;100246.78;5002150;28;20615;-85
2022/10/26 07:03:12;;;;;;;18.33;13.30;;;;;;;10.24;97.86;100261.53;5002533;28;20464;-86
2022/10/26 07:05:39;;;;;;;19.87;13.67;;;;;;;10.24;97.75;100250.84;5003291;28;20483;-85
2022/10/26 07:08:05;;;;;;;19.47;13.87;;;;;;;10.22;98.32;100252.81;5003063;28;20484;-84
2022/10/26 07:10:33;;;;;;;19.50;13.40;;;;;;;10.29;98.67;100253.94;5001260;28;20472;-84
2022/10/26 07:13:00;;;;;;;20.53;12.60;;;;;;;10.24;98.50;100265.06;5002160;28;20440;-84
2022/10/26 07:15:28;;;;;;;26.03;13.23;;;;;;;10.33;98.67;100255.41;5001272;28;20491;-84
2022/10/26 07:17:55;;;;;;;17.97;13.80;;;;;;;10.35;98.78;100261.47;5000897;28;20456;-85
2022/10/26 07:20:22;;;;;;;18.67;12.93;;;;;;;10.46;98.31;100255.13;5001637;28;20440;-85
2022/10/26 07:22:51;;;;;;;18.33;12.20;;;;;;;10.51;97.98;100258.22;5001942;28;20479;-84
2022/10/26 07:25:18;;;;;;;18.20;12.37;;;;;;;10.61;98.24;100256.41;5001213;28;20515;-84
2022/10/26 07:27:45;;;;;;;18.63;12.37;;;;;;;10.65;98.13;100256.97;5002155;28;20496;-84
2022/10/26 07:30:12;;;;;;;19.77;12.90;;;;;;;10.77;97.60;100255.84;5000639;28;20488;-83
2022/10/26 07:32:40;;;;;;;20.07;11.70;;;;;;;10.83;97.98;100254.41;5001117;28;20969;-84
2022/10/26 07:35:10;;;;;;;21.47;12.20;;;;;;;11.04;97.73;100254.25;5001487;28;20440;-85
2022/10/26 07:37:36;;;;;;;19.23;12.40;;;;;;;11.25;97.44;100268.31;5001998;28;20456;-84
2022/10/26 07:40:04;;;;;;;21.17;13.33;;;;;;;11.58;96.95;100268.75;5001062;28;20448;-83
2022/10/26 07:42:31;;;;;;;21.67;13.00;;;;;;;11.60;95.99;100261.44;5001201;28;20487;-84
2022/10/26 07:44:57;;;;;;;16.63;12.70;;;;;;;11.86;95.51;100258.91;5001544;28;20452;-83
2022/10/26 07:47:24;;;;;;;18.40;12.63;;;;;;;12.04;93.86;100258.97;4999262;28;20523;-84
2022/10/26 07:49:52;;;;;;;20.73;12.40;;;;;;;12.34;92.85;100270.38;5001354;28;20429;-84
2022/10/26 07:52:18;;;;;;;17.40;12.30;;;;;;;12.50;90.02;100258.97;5001194;28;20495;-82
2022/10/26 07:54:45;;;;;;;15.63;11.63;;;;;;;12.73;89.46;100262.03;5000526;28;20463;-84
2022/10/26 07:57:12;;;;;;;16.90;11.93;;;;;;;14.18;85.20;100267.75;5000582;28;20504;-85
2022/10/26 07:59:38;;;;;;;12.80;10.57;;;;;;;16.49;73.26;100266.38;5001043;28;20440;-86
2022/10/26 08:02:05;;;;;;;12.17;10.53;;;;;;;17.98;63.57;100254.00;4999806;28;20476;-86
2022/10/26 08:04:31;;;;;;;15.80;9.00;;;;;;;17.82;63.55;100265.03;5001415;28;20472;-84
2022/10/26 08:06:59;;;;;;;8.37;7.30;;;;;;;18.71;61.77;100259.41;5000650;28;20514;-82
2022/10/26 08:09:26;;;;;;;8.63;7.17;;;;;;;18.87;60.74;100258.34;5000357;28;20494;-85
2022/10/26 08:11:53;;;;;;;8.73;7.13;;;;;;;20.58;53.34;100257.81;5000949;28;21116;-85
2022/10/26 08:14:19;;;;;;;8.50;6.67;;;;;;;19.18;57.52;100260.69;5001738;28;20443;-83
2022/10/26 08:16:46;;;;;;;8.63;6.73;;;;;;;19.74;56.04;100256.28;4999034;28;20590;-83
2022/10/26 08:19:13;;;;;;;8.33;6.60;;;;;;;20.31;53.98;100256.91;5000045;28;20458;-82
2022/10/26 08:21:40;;;;;;;9.53;6.83;;;;;;;18.75;59.36;100262.59;5000720;28;20494;-84
2022/10/26 08:24:08;;;;;;;8.37;7.23;;;;;;;17.30;64.49;100251.38;5000411;28;20442;-83
2022/10/26 08:26:35;;;;;;;7.10;6.40;;;;;;;16.68;67.10;100259.69;5001102;28;20522;-85
2022/10/26 08:29:02;;;;;;;8.60;7.50;;;;;;;15.98;71.16;100258.75;5001085;28;20492;-83
2022/10/26 08:31:28;;;;;;;12.03;7.40;;;;;;;15.94;72.25;100252.88;4999054;28;20548;-82
2022/10/26 08:33:55;;;;;;;9.10;6.63;;;;;;;15.63;73.83;100252.78;5000667;28;20488;-83
2022/10/26 08:36:24;;;;;;;8.27;7.20;;;;;;;15.52;73.35;100254.00;5000494;28;20489;-83
2022/10/26 08:38:51;;;;;;;8.90;7.20;;;;;;;14.98;76.22;100257.31;4999931;28;20499;-86
2022/10/26 08:41:20;;;;;;;10.57;7.10;;;;;;;14.86;76.95;100247.88;5000246;28;20554;-83
2022/10/26 08:43:49;;;;;;;12.50;7.10;;;;;;;14.79;77.53;100249.53;5001228;28;20444;-86
2022/10/26 08:46:20;;;;;;;13.30;7.27;;;;;;;14.99;78.45;100244.69;4998647;28;20629;-86
2022/10/26 08:48:49;;;;;;;8.77;7.87;;;;;;;15.12;78.25;100246.84;5000618;28;20503;-83
2022/10/26 08:51:19;;;;;;;9.50;7.00;;;;;;;15.27;76.32;100244.31;5000048;28;20857;-86
2022/10/26 08:53:51;;;;;;;10.30;7.93;;;;;;;15.13;77.11;100253.91;5000581;28;20607;-83
2022/10/26 08:56:22;;;;;;;11.20;7.17;;;;;;;15.16;77.84;100253.59;4999438;28;20487;-84
2022/10/26 08:58:54;;;;;;;9.10;7.33;;;;;;;15.43;78.26;100255.91;5001272;28;20456;-84
2022/10/26 09:01:21;;;;;;;13.90;8.00;;;;;;;15.43;76.97;100247.81;4999389;28;20514;-86
2022/10/26 09:03:48;;;;;;;14.07;8.07;;;;;;;15.51;77.71;100249.63;5000866;28;20460;-85
2022/10/26 09:06:21;;;;;;;9.97;7.57;;;;;;;15.55;75.90;100244.72;5000570;28;20504;-85
2022/10/26 09:09:07;;;;;;;9.20;7.70;;;;;;;15.63;75.75;100250.09;5000581;28;20475;-86
2022/10/26 09:11:46;;;;;;;8.70;7.00;;;;;;;15.96;74.98;100247.31;5003089;28;20495;-86
2022/10/26 09:14:18;;;;;;;10.73;7.53;;;;;;;16.23;73.89;100242.44;4986625;28;20472;-83
2022/10/26 09:16:51;;;;;;;9.53;6.50;;;;;;;15.94;74.51;100239.41;4998724;28;20537;-80
2022/10/26 09:19:31;;;;;;;9.43;6.80;;;;;;;16.75;72.34;100244.44;5003689;28;20479;-81
2022/10/26 09:22:04;;;;;;;9.20;7.07;;;;;;;16.89;71.68;100237.44;5004214;28;20475;-78
2022/10/26 09:24:32;;;;;;;8.20;6.23;;;;;;;18.11;67.43;100239.81;5004087;28;20512;-78
2022/10/26 09:27:04;;;;;;;8.57;6.20;;;;;;;18.81;63.37;100240.94;5003946;28;20473;-80
2022/10/26 09:29:34;;;;;;;8.37;6.17;;;;;;;18.77;63.84;100242.38;5003209;28;20531;-80
2022/10/26 09:32:02;;;;;;;10.10;5.70;;;;;;;20.48;56.99;100241.94;5001135;28;20548;-80
2022/10/26 09:34:32;;;;;;;7.47;4.97;;;;;;;20.64;56.39;100243.44;5004119;28;20455;-79
2022/10/26 09:36:59;;;;;;;7.13;4.37;;;;;;;19.48;59.71;100240.66;5003646;28;20506;-79
2022/10/26 09:39:36;;;;;;;6.70;4.80;;;;;;;18.92;61.99;100239.63;5003500;28;20465;-79
2022/10/26 09:42:11;;;;;;;8.17;5.17;;;;;;;18.76;63.89;100232.56;5003395;28;20486;-79
2022/10/26 09:44:42;;;;;;;7.63;5.20;;;;;;;20.44;58.44;100237.13;4991091;28;20910;-79
2022/10/26 09:47:14;;;;;;;6.93;4.73;;;;;;;22.26;51.55;100242.94;5002297;28;20482;-80
2022/10/26 09:49:44;;;;;;;7.37;4.70;;;;;;;23.29;49.18;100243.72;5003884;28;20549;-81
2022/10/26 09:52:10;;;;;;;7.60;4.57;;;;;;;22.28;51.32;100242.75;5003714;28;21031;-80
2022/10/26 09:54:37;;;;;;;7.53;4.07;;;;;;;21.93;51.64;100238.50;5001241;28;20486;-80
2022/10/26 09:57:05;;;;;;;5.37;4.03;;;;;;;21.28;53.51;100232.16;5003706;28;20482;-80
2022/10/26 09:59:36;;;;;;;7.60;4.60;;;;;;;22.15;51.20;100241.75;5004069;28;20463;-80
2022/10/26 10:02:31;;;;;;;6.33;4.13;;;;;;;22.21;50.94;100239.22;4999931;28;20514;-80
2022/10/26 10:04:58;;;;;;;11.17;4.20;;;;;;;22.74;49.97;100241.59;5003812;28;20454;-80
2022/10/26 10:07:25;;;;;;;8.60;4.40;;;;;;;23.60;48.27;100240.03;5011466;28;20500;-80
2022/10/26 10:10:07;;;;;;;4.10;3.63;;;;;;;24.36;46.41;100245.22;5005575;28;20523;-80
2022/10/26 10:12:35;;;;;;;5.93;4.97;;;;;;;23.68;47.79;100244.38;5014668;28;20860;-80
2022/10/26 10:15:01;;;;;;;3.60;3.30;;;;;;;23.67;47.65;100257.16;5002959;28;20475;-80
2022/10/26 10:17:28;;;;;;;5.03;3.87;;;;;;;24.52;45.23;100265.59;4999671;28;20483;-80
2022/10/26 10:19:54;;;;;;;4.33;3.60;;;;;;;24.93;45.42;100263.94;5001459;28;20478;-81
2022/10/26 10:22:25;;;;;;;7.97;2.77;;;;;;;23.54;46.90;100264.66;5000445;28;20500;-80
2022/10/26 10:24:56;;;;;;;4.90;3.10;;;;;;;23.52;47.27;100269.50;5002549;28;20511;-80
2022/10/26 10:27:24;;;;;;;3.63;2.40;;;;;;;23.55;46.83;100271.78;5000027;28;20499;-80
2022/10/26 10:29:54;;;;;;;8.10;2.73;;;;;;;22.13;50.44;100276.53;5001240;28;20500;-80
2022/10/26 10:32:22;;;;;;;2.63;2.20;;;;;;;22.78;49.76;100278.28;4996559;28;21034;-80
2022/10/26 10:34:50;;;;;;;4.50;2.73;;;;;;;23.09;49.69;100277.44;5002887;28;20453;-80
2022/10/26 10:37:24;;;;;;;6.40;2.50;;;;;;;23.61;48.38;100281.78;4999506;28;20517;-80
2022/10/26 10:39:51;;;;;;;7.53;3.43;;;;;;;23.50;47.42;100286.97;5001151;28;20473;-80
2022/10/26 10:42:21;;;;;;;4.30;2.47;;;;;;;25.26;43.59;100287.19;4997017;28;22170;-80
2022/10/26 10:44:52;;;;;;;6.13;2.40;;;;;;;23.06;48.54;100296.97;4999731;28;20456;-80
2022/10/26 10:47:22;;;;;;;3.73;2.30;;;;;;;22.61;50.95;100305.22;5000764;28;20571;-80
2022/10/26 10:49:55;;;;;;;4.33;2.20;;;;;;;23.10;49.48;100306.38;5002102;28;20486;-80
2022/10/26 10:52:25;;;;;;;6.17;2.70;;;;;;;25.48;43.35;100296.47;4996076;28;20765;-80
2022/10/26 10:55:03;;;;;;;4.17;2.53;;;;;;;24.29;45.64;100297.22;4999759;28;20898;-80
2022/10/26 10:57:35;;;;;;;6.10;2.40;;;;;;;25.16;44.15;100296.78;4998919;28;20479;-80
2022/10/26 11:00:05;;;;;;;3.47;2.33;;;;;;;25.15;43.72;100297.88;4993347;28;20460;-80
2022/10/26 11:03:01;;;;;;;6.30;2.53;;;;;;;25.17;44.07;100306.69;4998445;28;20488;-78
2022/10/26 11:05:36;;;;;;;3.10;1.57;;;;;;;25.08;44.79;100297.13;5000979;28;20508;-79
2022/10/26 11:08:06;;;;;;;2.67;2.03;;;;;;;25.28;44.47;100306.97;5001930;28;20463;-79
2022/10/26 11:10:36;;;;;;;6.63;2.57;;;;;;;24.55;45.44;100309.72;5000254;28;20556;-78
2022/10/26 11:13:07;;;;;;;3.27;1.80;;;;;;;25.04;44.13;100297.84;5002608;28;20433;-78
2022/10/26 11:15:37;;;;;;;6.07;2.10;;;;;;;24.88;44.39;100305.66;5001447;28;20496;-79
2022/10/26 11:18:08;;;;;;;4.50;2.20;;;;;;;23.19;48.51;100308.84;5001862;28;20492;-80
2022/10/26 11:20:38;;;;;;;4.10;2.40;;;;;;;25.58;43.00;100304.09;5001478;28;20479;-82
2022/10/26 11:23:09;;;;;;;2.93;1.47;;;;;;;26.19;42.37;100301.88;5000819;28;20527;-80
2022/10/26 11:25:44;;;;;;;6.77;2.40;;;;;;;26.09;42.07;100307.16;5002116;28;20989;-80
2022/10/26 11:28:16;;;;;;;4.40;1.90;;;;;;;25.51;43.28;100311.59;5001875;28;20451;-80